sensor_id;sensor_type;location;lat;lon;timestamp;P1;durP1;ratioP1;P2;durP2;ratioP2
19171;SDS011;9718;52.200;21.052;2022-12-10T00:01:06;107.80;;;50.40;;
19171;SDS011;9718;52.200;21.052;2022-12-10T00:03:35;100.93;;;42.30;;
19171;SDS011;9718;52.200;21.052;2022-12-10T00:06:03;107.20;;;45.90;;
19171;SDS011;9718;52.200;21.052;2022-12-10T00:08:32;117.73;;;47.90;;
19171;SDS011;9718;52.200;21.052;2022-12-10T00:11:02;110.93;;;45.30;;
19171;SDS011;9718;52.200;21.052;2022-12-10T00:13:30;110.00;;;44.57;;
19171;SDS011;9718;52.200;21.052;2022-12-10T00:15:59;104.80;;;43.70;;
19171;SDS011;9718;52.200;21.052;2022-12-10T00:18:27;107.80;;;46.47;;
19171;SDS011;9718;52.200;21.052;2022-12-10T00:20:54;102.17;;;40.87;;
19171;SDS011;9718;52.200;21.052;2022-12-10T00:23:22;97.93;;;40.83;;
19171;SDS011;9718;52.200;21.052;2022-12-10T00:25:49;118.80;;;45.80;;
19171;SDS011;9718;52.200;21.052;2022-12-10T00:28:16;118.47;;;47.97;;
19171;SDS011;9718;52.200;21.052;2022-12-10T00:30:43;110.30;;;44.90;;
19171;SDS011;9718;52.200;21.052;2022-12-10T00:33:11;106.63;;;44.97;;
19171;SDS011;9718;52.200;21.052;2022-12-10T00:35:38;110.00;;;47.57;;
19171;SDS011;9718;52.200;21.052;2022-12-10T00:38:05;87.13;;;39.07;;
19171;SDS011;9718;52.200;21.052;2022-12-10T00:40:32;100.93;;;41.67;;
19171;SDS011;9718;52.200;21.052;2022-12-10T00:42:59;102.10;;;44.77;;
19171;SDS011;9718;52.200;21.052;2022-12-10T00:45:26;103.00;;;44.50;;
19171;SDS011;9718;52.200;21.052;2022-12-10T00:47:53;95.93;;;42.70;;
19171;SDS011;9718;52.200;21.052;2022-12-10T00:50:20;104.17;;;44.47;;
19171;SDS011;9718;52.200;21.052;2022-12-10T00:52:48;96.13;;;39.33;;
19171;SDS011;9718;52.200;21.052;2022-12-10T00:55:15;97.57;;;40.13;;
19171;SDS011;9718;52.200;21.052;2022-12-10T00:57:42;101.90;;;43.93;;
19171;SDS011;9718;52.200;21.052;2022-12-10T01:00:09;109.33;;;47.10;;
19171;SDS011;9718;52.200;21.052;2022-12-10T01:02:37;101.43;;;42.53;;
19171;SDS011;9718;52.200;21.052;2022-12-10T01:05:04;111.70;;;44.33;;
19171;SDS011;9718;52.200;21.052;2022-12-10T01:07:32;102.17;;;41.60;;
19171;SDS011;9718;52.200;21.052;2022-12-10T01:09:58;105.73;;;43.20;;
19171;SDS011;9718;52.200;21.052;2022-12-10T01:12:26;106.63;;;42.80;;
19171;SDS011;9718;52.200;21.052;2022-12-10T01:14:53;107.43;;;46.50;;
19171;SDS011;9718;52.200;21.052;2022-12-10T01:17:20;106.23;;;41.17;;
19171;SDS011;9718;52.200;21.052;2022-12-10T01:19:47;103.23;;;44.03;;
19171;SDS011;9718;52.200;21.052;2022-12-10T01:22:15;101.27;;;42.30;;
19171;SDS011;9718;52.200;21.052;2022-12-10T01:24:42;95.50;;;38.03;;
19171;SDS011;9718;52.200;21.052;2022-12-10T01:27:09;106.20;;;44.17;;
19171;SDS011;9718;52.200;21.052;2022-12-10T01:29:36;95.57;;;40.87;;
19171;SDS011;9718;52.200;21.052;2022-12-10T01:32:03;101.30;;;44.47;;
19171;SDS011;9718;52.200;21.052;2022-12-10T01:34:30;101.43;;;38.47;;
19171;SDS011;9718;52.200;21.052;2022-12-10T01:36:57;110.53;;;46.07;;
19171;SDS011;9718;52.200;21.052;2022-12-10T01:39:24;102.43;;;42.40;;
19171;SDS011;9718;52.200;21.052;2022-12-10T01:41:55;99.63;;;41.87;;
19171;SDS011;9718;52.200;21.052;2022-12-10T01:46:52;99.67;;;38.00;;
19171;SDS011;9718;52.200;21.052;2022-12-10T01:49:22;96.97;;;41.23;;
19171;SDS011;9718;52.200;21.052;2022-12-10T01:51:52;105.53;;;45.00;;
19171;SDS011;9718;52.200;21.052;2022-12-10T01:57:10;91.00;;;33.47;;
19171;SDS011;9718;52.200;21.052;2022-12-10T01:59:38;87.07;;;38.23;;
19171;SDS011;9718;52.200;21.052;2022-12-10T02:05:00;87.37;;;36.63;;
19171;SDS011;9718;52.200;21.052;2022-12-10T02:10:47;77.97;;;30.37;;
19171;SDS011;9718;52.200;21.052;2022-12-10T02:13:30;73.27;;;31.13;;
19171;SDS011;9718;52.200;21.052;2022-12-10T02:16:16;84.50;;;34.00;;
19171;SDS011;9718;52.200;21.052;2022-12-10T02:18:51;71.60;;;29.10;;
19171;SDS011;9718;52.200;21.052;2022-12-10T02:21:25;84.77;;;33.37;;
19171;SDS011;9718;52.200;21.052;2022-12-10T02:23:57;86.50;;;31.70;;
19171;SDS011;9718;52.200;21.052;2022-12-10T02:29:26;89.40;;;36.53;;
19171;SDS011;9718;52.200;21.052;2022-12-10T02:34:23;80.57;;;35.03;;
19171;SDS011;9718;52.200;21.052;2022-12-10T02:36:53;73.70;;;31.40;;
19171;SDS011;9718;52.200;21.052;2022-12-10T02:39:24;76.73;;;34.20;;
19171;SDS011;9718;52.200;21.052;2022-12-10T02:41:55;82.67;;;33.10;;
19171;SDS011;9718;52.200;21.052;2022-12-10T02:44:26;78.73;;;28.97;;
19171;SDS011;9718;52.200;21.052;2022-12-10T02:46:55;65.97;;;28.53;;
19171;SDS011;9718;52.200;21.052;2022-12-10T02:49:24;75.20;;;30.93;;
19171;SDS011;9718;52.200;21.052;2022-12-10T02:51:54;78.73;;;31.17;;
19171;SDS011;9718;52.200;21.052;2022-12-10T02:57:18;75.30;;;29.20;;
19171;SDS011;9718;52.200;21.052;2022-12-10T03:05:45;68.67;;;30.23;;
19171;SDS011;9718;52.200;21.052;2022-12-10T03:08:33;60.80;;;28.70;;
19171;SDS011;9718;52.200;21.052;2022-12-10T03:11:16;66.87;;;29.70;;
19171;SDS011;9718;52.200;21.052;2022-12-10T03:16:21;60.97;;;27.53;;
19171;SDS011;9718;52.200;21.052;2022-12-10T03:18:51;53.67;;;24.93;;
19171;SDS011;9718;52.200;21.052;2022-12-10T03:21:23;71.40;;;28.77;;
19171;SDS011;9718;52.200;21.052;2022-12-10T03:23:52;64.37;;;26.00;;
19171;SDS011;9718;52.200;21.052;2022-12-10T03:26:20;68.20;;;27.17;;
19171;SDS011;9718;52.200;21.052;2022-12-10T03:28:50;71.73;;;28.13;;
19171;SDS011;9718;52.200;21.052;2022-12-10T03:31:20;65.93;;;29.07;;
19171;SDS011;9718;52.200;21.052;2022-12-10T03:33:48;70.67;;;30.70;;
19171;SDS011;9718;52.200;21.052;2022-12-10T03:36:17;70.63;;;25.67;;
19171;SDS011;9718;52.200;21.052;2022-12-10T03:38:45;71.07;;;29.13;;
19171;SDS011;9718;52.200;21.052;2022-12-10T03:41:12;74.77;;;30.40;;
19171;SDS011;9718;52.200;21.052;2022-12-10T03:43:49;63.30;;;25.83;;
19171;SDS011;9718;52.200;21.052;2022-12-10T03:46:21;67.10;;;26.17;;
19171;SDS011;9718;52.200;21.052;2022-12-10T03:48:50;69.57;;;32.03;;
19171;SDS011;9718;52.200;21.052;2022-12-10T03:51:18;61.50;;;27.33;;
19171;SDS011;9718;52.200;21.052;2022-12-10T03:53:46;64.60;;;29.50;;
19171;SDS011;9718;52.200;21.052;2022-12-10T03:56:15;60.33;;;24.90;;
19171;SDS011;9718;52.200;21.052;2022-12-10T03:58:43;58.90;;;28.33;;
19171;SDS011;9718;52.200;21.052;2022-12-10T04:01:10;58.73;;;25.40;;
19171;SDS011;9718;52.200;21.052;2022-12-10T04:03:38;61.70;;;22.93;;
19171;SDS011;9718;52.200;21.052;2022-12-10T04:06:08;58.60;;;24.47;;
19171;SDS011;9718;52.200;21.052;2022-12-10T04:08:37;55.43;;;23.37;;
19171;SDS011;9718;52.200;21.052;2022-12-10T04:11:05;60.40;;;25.77;;
19171;SDS011;9718;52.200;21.052;2022-12-10T04:13:35;59.80;;;24.03;;
19171;SDS011;9718;52.200;21.052;2022-12-10T04:16:23;66.40;;;25.73;;
19171;SDS011;9718;52.200;21.052;2022-12-10T04:18:56;72.27;;;28.40;;
19171;SDS011;9718;52.200;21.052;2022-12-10T04:21:50;56.93;;;24.53;;
19171;SDS011;9718;52.200;21.052;2022-12-10T04:24:36;64.20;;;27.77;;
19171;SDS011;9718;52.200;21.052;2022-12-10T04:27:23;64.43;;;26.20;;
19171;SDS011;9718;52.200;21.052;2022-12-10T04:29:55;65.10;;;26.97;;
19171;SDS011;9718;52.200;21.052;2022-12-10T04:32:24;59.53;;;25.23;;
19171;SDS011;9718;52.200;21.052;2022-12-10T04:34:53;69.80;;;29.93;;
19171;SDS011;9718;52.200;21.052;2022-12-10T04:37:21;59.73;;;24.57;;
19171;SDS011;9718;52.200;21.052;2022-12-10T04:39:49;52.87;;;23.57;;
19171;SDS011;9718;52.200;21.052;2022-12-10T04:42:18;54.63;;;23.70;;
19171;SDS011;9718;52.200;21.052;2022-12-10T04:44:46;54.00;;;23.27;;
19171;SDS011;9718;52.200;21.052;2022-12-10T04:47:13;52.47;;;22.97;;
19171;SDS011;9718;52.200;21.052;2022-12-10T04:49:40;50.03;;;22.30;;
19171;SDS011;9718;52.200;21.052;2022-12-10T04:52:08;55.57;;;22.40;;
19171;SDS011;9718;52.200;21.052;2022-12-10T04:54:37;47.30;;;19.90;;
19171;SDS011;9718;52.200;21.052;2022-12-10T04:57:05;53.13;;;23.93;;
19171;SDS011;9718;52.200;21.052;2022-12-10T04:59:33;48.87;;;20.63;;
19171;SDS011;9718;52.200;21.052;2022-12-10T05:02:01;53.23;;;19.43;;
19171;SDS011;9718;52.200;21.052;2022-12-10T05:04:29;52.20;;;22.83;;
19171;SDS011;9718;52.200;21.052;2022-12-10T05:06:56;58.17;;;23.03;;
19171;SDS011;9718;52.200;21.052;2022-12-10T05:09:24;51.57;;;21.53;;
19171;SDS011;9718;52.200;21.052;2022-12-10T05:11:52;56.43;;;24.63;;
19171;SDS011;9718;52.200;21.052;2022-12-10T05:14:19;55.27;;;20.77;;
19171;SDS011;9718;52.200;21.052;2022-12-10T05:16:48;47.93;;;22.17;;
19171;SDS011;9718;52.200;21.052;2022-12-10T05:19:15;57.23;;;20.73;;
19171;SDS011;9718;52.200;21.052;2022-12-10T05:21:43;54.53;;;21.00;;
19171;SDS011;9718;52.200;21.052;2022-12-10T05:24:29;49.60;;;20.63;;
19171;SDS011;9718;52.200;21.052;2022-12-10T05:26:56;46.27;;;19.50;;
19171;SDS011;9718;52.200;21.052;2022-12-10T05:29:24;45.70;;;20.47;;
19171;SDS011;9718;52.200;21.052;2022-12-10T05:31:51;48.80;;;21.40;;
19171;SDS011;9718;52.200;21.052;2022-12-10T05:34:19;40.47;;;16.77;;
19171;SDS011;9718;52.200;21.052;2022-12-10T05:36:46;49.13;;;21.40;;
19171;SDS011;9718;52.200;21.052;2022-12-10T05:39:13;41.90;;;17.43;;
19171;SDS011;9718;52.200;21.052;2022-12-10T05:41:41;47.23;;;19.93;;
19171;SDS011;9718;52.200;21.052;2022-12-10T05:44:10;48.00;;;20.30;;
19171;SDS011;9718;52.200;21.052;2022-12-10T05:46:37;38.03;;;17.67;;
19171;SDS011;9718;52.200;21.052;2022-12-10T05:49:05;48.00;;;21.07;;
19171;SDS011;9718;52.200;21.052;2022-12-10T05:51:34;51.17;;;19.03;;
19171;SDS011;9718;52.200;21.052;2022-12-10T05:54:04;44.97;;;19.20;;
19171;SDS011;9718;52.200;21.052;2022-12-10T05:56:32;50.37;;;20.03;;
19171;SDS011;9718;52.200;21.052;2022-12-10T05:59:01;44.77;;;17.63;;
19171;SDS011;9718;52.200;21.052;2022-12-10T06:01:31;47.70;;;19.57;;
19171;SDS011;9718;52.200;21.052;2022-12-10T06:04:00;44.97;;;17.40;;
19171;SDS011;9718;52.200;21.052;2022-12-10T06:06:29;39.07;;;15.90;;
19171;SDS011;9718;52.200;21.052;2022-12-10T06:08:58;41.63;;;17.90;;
19171;SDS011;9718;52.200;21.052;2022-12-10T06:11:25;47.53;;;19.33;;
19171;SDS011;9718;52.200;21.052;2022-12-10T06:13:53;44.43;;;18.97;;
19171;SDS011;9718;52.200;21.052;2022-12-10T06:16:22;48.90;;;22.03;;
19171;SDS011;9718;52.200;21.052;2022-12-10T06:18:51;42.93;;;20.03;;
19171;SDS011;9718;52.200;21.052;2022-12-10T06:21:19;43.57;;;17.37;;
19171;SDS011;9718;52.200;21.052;2022-12-10T06:23:49;48.13;;;20.23;;
19171;SDS011;9718;52.200;21.052;2022-12-10T06:26:20;47.47;;;17.77;;
19171;SDS011;9718;52.200;21.052;2022-12-10T06:28:49;44.80;;;17.40;;
19171;SDS011;9718;52.200;21.052;2022-12-10T06:31:17;40.80;;;16.87;;
19171;SDS011;9718;52.200;21.052;2022-12-10T06:33:45;45.33;;;17.87;;
19171;SDS011;9718;52.200;21.052;2022-12-10T06:36:13;45.17;;;17.73;;
19171;SDS011;9718;52.200;21.052;2022-12-10T06:38:42;37.77;;;17.50;;
19171;SDS011;9718;52.200;21.052;2022-12-10T06:41:10;37.77;;;15.43;;
19171;SDS011;9718;52.200;21.052;2022-12-10T06:43:39;38.33;;;18.23;;
19171;SDS011;9718;52.200;21.052;2022-12-10T06:46:10;42.13;;;15.53;;
19171;SDS011;9718;52.200;21.052;2022-12-10T06:48:40;40.57;;;17.43;;
19171;SDS011;9718;52.200;21.052;2022-12-10T06:51:08;43.43;;;17.37;;
19171;SDS011;9718;52.200;21.052;2022-12-10T06:53:37;45.47;;;16.23;;
19171;SDS011;9718;52.200;21.052;2022-12-10T06:56:05;40.97;;;18.00;;
19171;SDS011;9718;52.200;21.052;2022-12-10T06:58:33;47.13;;;19.63;;
19171;SDS011;9718;52.200;21.052;2022-12-10T07:01:05;48.97;;;18.30;;
19171;SDS011;9718;52.200;21.052;2022-12-10T07:03:33;44.47;;;17.77;;
19171;SDS011;9718;52.200;21.052;2022-12-10T07:06:01;48.67;;;18.67;;
19171;SDS011;9718;52.200;21.052;2022-12-10T07:08:29;52.27;;;20.07;;
19171;SDS011;9718;52.200;21.052;2022-12-10T07:10:56;49.83;;;20.67;;
19171;SDS011;9718;52.200;21.052;2022-12-10T07:13:23;44.57;;;16.40;;
19171;SDS011;9718;52.200;21.052;2022-12-10T07:15:56;54.33;;;19.87;;
19171;SDS011;9718;52.200;21.052;2022-12-10T07:18:24;55.37;;;19.37;;
19171;SDS011;9718;52.200;21.052;2022-12-10T07:20:53;54.70;;;17.70;;
19171;SDS011;9718;52.200;21.052;2022-12-10T07:23:20;52.17;;;17.70;;
19171;SDS011;9718;52.200;21.052;2022-12-10T07:25:47;47.07;;;19.10;;
19171;SDS011;9718;52.200;21.052;2022-12-10T07:28:14;54.70;;;21.77;;
19171;SDS011;9718;52.200;21.052;2022-12-10T07:30:42;53.40;;;20.97;;
19171;SDS011;9718;52.200;21.052;2022-12-10T07:33:08;52.27;;;18.93;;
19171;SDS011;9718;52.200;21.052;2022-12-10T07:35:37;54.97;;;19.40;;
19171;SDS011;9718;52.200;21.052;2022-12-10T07:38:14;53.73;;;19.83;;
19171;SDS011;9718;52.200;21.052;2022-12-10T07:40:41;54.13;;;19.60;;
19171;SDS011;9718;52.200;21.052;2022-12-10T07:43:08;53.63;;;17.60;;
19171;SDS011;9718;52.200;21.052;2022-12-10T07:45:35;59.93;;;20.20;;
19171;SDS011;9718;52.200;21.052;2022-12-10T07:48:02;59.97;;;20.43;;
19171;SDS011;9718;52.200;21.052;2022-12-10T07:50:29;45.73;;;18.00;;
19171;SDS011;9718;52.200;21.052;2022-12-10T07:52:56;53.37;;;17.83;;
19171;SDS011;9718;52.200;21.052;2022-12-10T07:55:25;54.13;;;17.80;;
19171;SDS011;9718;52.200;21.052;2022-12-10T07:57:52;54.87;;;18.87;;
19171;SDS011;9718;52.200;21.052;2022-12-10T08:00:19;58.67;;;19.93;;
19171;SDS011;9718;52.200;21.052;2022-12-10T08:02:46;50.90;;;17.83;;
19171;SDS011;9718;52.200;21.052;2022-12-10T08:05:13;50.70;;;19.10;;
19171;SDS011;9718;52.200;21.052;2022-12-10T08:07:40;52.53;;;21.20;;
19171;SDS011;9718;52.200;21.052;2022-12-10T08:10:08;59.93;;;22.37;;
19171;SDS011;9718;52.200;21.052;2022-12-10T08:12:35;56.97;;;21.33;;
19171;SDS011;9718;52.200;21.052;2022-12-10T08:15:02;52.27;;;17.63;;
19171;SDS011;9718;52.200;21.052;2022-12-10T08:17:30;50.53;;;17.67;;
19171;SDS011;9718;52.200;21.052;2022-12-10T08:19:57;57.57;;;19.70;;
19171;SDS011;9718;52.200;21.052;2022-12-10T08:22:24;50.97;;;20.80;;
19171;SDS011;9718;52.200;21.052;2022-12-10T08:24:51;48.27;;;17.80;;
19171;SDS011;9718;52.200;21.052;2022-12-10T08:27:18;58.23;;;24.77;;
19171;SDS011;9718;52.200;21.052;2022-12-10T08:29:45;43.97;;;18.37;;
19171;SDS011;9718;52.200;21.052;2022-12-10T08:32:12;44.77;;;16.40;;
19171;SDS011;9718;52.200;21.052;2022-12-10T08:34:40;53.60;;;20.70;;
19171;SDS011;9718;52.200;21.052;2022-12-10T08:37:07;54.70;;;22.37;;
19171;SDS011;9718;52.200;21.052;2022-12-10T08:39:38;50.07;;;20.33;;
19171;SDS011;9718;52.200;21.052;2022-12-10T08:42:06;56.50;;;20.13;;
19171;SDS011;9718;52.200;21.052;2022-12-10T08:44:33;50.07;;;18.57;;
19171;SDS011;9718;52.200;21.052;2022-12-10T08:47:00;61.33;;;22.37;;
19171;SDS011;9718;52.200;21.052;2022-12-10T08:49:27;51.77;;;20.67;;
19171;SDS011;9718;52.200;21.052;2022-12-10T08:51:54;53.83;;;18.23;;
19171;SDS011;9718;52.200;21.052;2022-12-10T08:54:22;53.60;;;19.60;;
19171;SDS011;9718;52.200;21.052;2022-12-10T08:56:49;50.17;;;21.33;;
19171;SDS011;9718;52.200;21.052;2022-12-10T08:59:16;51.80;;;20.73;;
19171;SDS011;9718;52.200;21.052;2022-12-10T09:01:43;54.47;;;19.90;;
19171;SDS011;9718;52.200;21.052;2022-12-10T09:04:10;48.90;;;18.30;;
19171;SDS011;9718;52.200;21.052;2022-12-10T09:06:39;52.90;;;19.50;;
19171;SDS011;9718;52.200;21.052;2022-12-10T09:09:06;53.00;;;20.50;;
19171;SDS011;9718;52.200;21.052;2022-12-10T09:11:33;52.80;;;17.90;;
19171;SDS011;9718;52.200;21.052;2022-12-10T09:14:01;48.37;;;16.60;;
19171;SDS011;9718;52.200;21.052;2022-12-10T09:16:32;46.43;;;16.33;;
19171;SDS011;9718;52.200;21.052;2022-12-10T09:19:02;51.73;;;17.33;;
19171;SDS011;9718;52.200;21.052;2022-12-10T09:21:30;52.03;;;18.30;;
19171;SDS011;9718;52.200;21.052;2022-12-10T09:23:57;40.03;;;15.47;;
19171;SDS011;9718;52.200;21.052;2022-12-10T09:26:25;41.57;;;16.17;;
19171;SDS011;9718;52.200;21.052;2022-12-10T09:28:53;49.50;;;19.23;;
19171;SDS011;9718;52.200;21.052;2022-12-10T09:31:21;45.73;;;15.67;;
19171;SDS011;9718;52.200;21.052;2022-12-10T09:33:49;47.50;;;17.40;;
19171;SDS011;9718;52.200;21.052;2022-12-10T09:36:17;51.17;;;18.30;;
19171;SDS011;9718;52.200;21.052;2022-12-10T09:38:46;43.53;;;16.87;;
19171;SDS011;9718;52.200;21.052;2022-12-10T09:44:05;49.13;;;16.53;;
19171;SDS011;9718;52.200;21.052;2022-12-10T09:46:58;46.53;;;15.57;;
19171;SDS011;9718;52.200;21.052;2022-12-10T09:52:41;52.63;;;19.10;;
19171;SDS011;9718;52.200;21.052;2022-12-10T09:55:16;43.47;;;15.80;;
19171;SDS011;9718;52.200;21.052;2022-12-10T09:57:46;43.30;;;15.17;;
19171;SDS011;9718;52.200;21.052;2022-12-10T10:00:32;52.03;;;18.30;;
19171;SDS011;9718;52.200;21.052;2022-12-10T10:03:00;51.63;;;17.97;;
19171;SDS011;9718;52.200;21.052;2022-12-10T10:05:31;44.60;;;15.97;;
19171;SDS011;9718;52.200;21.052;2022-12-10T10:08:03;48.00;;;16.23;;
19171;SDS011;9718;52.200;21.052;2022-12-10T10:10:44;46.60;;;18.03;;
19171;SDS011;9718;52.200;21.052;2022-12-10T10:13:14;45.33;;;17.53;;
19171;SDS011;9718;52.200;21.052;2022-12-10T10:15:48;45.23;;;16.20;;
19171;SDS011;9718;52.200;21.052;2022-12-10T10:18:36;41.20;;;15.93;;
19171;SDS011;9718;52.200;21.052;2022-12-10T10:21:21;46.37;;;15.23;;
19171;SDS011;9718;52.200;21.052;2022-12-10T10:23:51;42.00;;;14.30;;
19171;SDS011;9718;52.200;21.052;2022-12-10T10:26:19;39.43;;;16.20;;
19171;SDS011;9718;52.200;21.052;2022-12-10T10:28:46;44.47;;;17.03;;
19171;SDS011;9718;52.200;21.052;2022-12-10T10:31:22;43.63;;;17.77;;
19171;SDS011;9718;52.200;21.052;2022-12-10T10:33:55;47.10;;;17.37;;
19171;SDS011;9718;52.200;21.052;2022-12-10T10:36:32;41.63;;;16.40;;
19171;SDS011;9718;52.200;21.052;2022-12-10T10:41:59;47.27;;;17.27;;
19171;SDS011;9718;52.200;21.052;2022-12-10T10:44:34;44.00;;;17.63;;
19171;SDS011;9718;52.200;21.052;2022-12-10T10:47:23;45.83;;;15.60;;
19171;SDS011;9718;52.200;21.052;2022-12-10T10:50:01;44.10;;;16.87;;
19171;SDS011;9718;52.200;21.052;2022-12-10T10:52:36;37.07;;;13.33;;
19171;SDS011;9718;52.200;21.052;2022-12-10T10:55:04;40.80;;;16.03;;
19171;SDS011;9718;52.200;21.052;2022-12-10T10:57:33;37.40;;;15.13;;
19171;SDS011;9718;52.200;21.052;2022-12-10T11:00:07;40.07;;;15.73;;
19171;SDS011;9718;52.200;21.052;2022-12-10T11:02:45;43.20;;;16.73;;
19171;SDS011;9718;52.200;21.052;2022-12-10T11:05:25;43.07;;;16.83;;
19171;SDS011;9718;52.200;21.052;2022-12-10T11:08:19;44.23;;;16.27;;
19171;SDS011;9718;52.200;21.052;2022-12-10T11:10:50;35.70;;;14.93;;
19171;SDS011;9718;52.200;21.052;2022-12-10T11:13:25;40.10;;;17.13;;
19171;SDS011;9718;52.200;21.052;2022-12-10T11:15:54;40.70;;;16.30;;
19171;SDS011;9718;52.200;21.052;2022-12-10T11:18:34;40.17;;;17.03;;
19171;SDS011;9718;52.200;21.052;2022-12-10T11:21:14;39.63;;;14.60;;
19171;SDS011;9718;52.200;21.052;2022-12-10T11:23:44;38.50;;;14.83;;
19171;SDS011;9718;52.200;21.052;2022-12-10T11:35:15;34.37;;;14.80;;
19171;SDS011;9718;52.200;21.052;2022-12-10T11:40:48;37.70;;;17.17;;
19171;SDS011;9718;52.200;21.052;2022-12-10T11:46:21;32.67;;;13.33;;
19171;SDS011;9718;52.200;21.052;2022-12-10T11:52:12;36.07;;;15.10;;
19171;SDS011;9718;52.200;21.052;2022-12-10T12:03:34;51.80;;;17.57;;
19171;SDS011;9718;52.200;21.052;2022-12-10T12:17:19;49.80;;;17.77;;
19171;SDS011;9718;52.200;21.052;2022-12-10T12:19:54;47.87;;;16.97;;
19171;SDS011;9718;52.200;21.052;2022-12-10T12:22:29;40.63;;;16.97;;
19171;SDS011;9718;52.200;21.052;2022-12-10T12:25:07;39.83;;;14.87;;
19171;SDS011;9718;52.200;21.052;2022-12-10T12:27:45;45.43;;;18.30;;
19171;SDS011;9718;52.200;21.052;2022-12-10T12:30:20;41.30;;;14.87;;
19171;SDS011;9718;52.200;21.052;2022-12-10T12:40:59;50.37;;;17.10;;
19171;SDS011;9718;52.200;21.052;2022-12-10T12:46:05;43.50;;;16.73;;
19171;SDS011;9718;52.200;21.052;2022-12-10T12:48:45;43.07;;;16.87;;
19171;SDS011;9718;52.200;21.052;2022-12-10T12:51:34;39.30;;;16.53;;
19171;SDS011;9718;52.200;21.052;2022-12-10T12:54:07;47.33;;;15.17;;
19171;SDS011;9718;52.200;21.052;2022-12-10T12:59:45;42.50;;;16.03;;
19171;SDS011;9718;52.200;21.052;2022-12-10T13:05:25;41.63;;;14.93;;
19171;SDS011;9718;52.200;21.052;2022-12-10T13:27:23;44.53;;;17.97;;
19171;SDS011;9718;52.200;21.052;2022-12-10T13:30:01;47.57;;;18.97;;
19171;SDS011;9718;52.200;21.052;2022-12-10T13:40:25;44.77;;;16.53;;
19171;SDS011;9718;52.200;21.052;2022-12-10T13:42:56;50.00;;;20.93;;
19171;SDS011;9718;52.200;21.052;2022-12-10T13:49:01;47.53;;;21.10;;
19171;SDS011;9718;52.200;21.052;2022-12-10T13:51:37;45.13;;;17.97;;
19171;SDS011;9718;52.200;21.052;2022-12-10T13:59:59;54.17;;;20.17;;
19171;SDS011;9718;52.200;21.052;2022-12-10T14:08:28;39.67;;;16.50;;
19171;SDS011;9718;52.200;21.052;2022-12-10T14:10:59;47.93;;;16.77;;
19171;SDS011;9718;52.200;21.052;2022-12-10T14:13:32;44.03;;;16.57;;
19171;SDS011;9718;52.200;21.052;2022-12-10T14:16:05;42.40;;;16.47;;
19171;SDS011;9718;52.200;21.052;2022-12-10T14:18:38;43.40;;;18.23;;
19171;SDS011;9718;52.200;21.052;2022-12-10T14:21:10;47.23;;;18.70;;
19171;SDS011;9718;52.200;21.052;2022-12-10T14:23:47;47.77;;;19.73;;
19171;SDS011;9718;52.200;21.052;2022-12-10T14:26:26;40.77;;;18.30;;
19171;SDS011;9718;52.200;21.052;2022-12-10T14:28:58;43.53;;;18.93;;
19171;SDS011;9718;52.200;21.052;2022-12-10T14:34:07;41.73;;;16.93;;
19171;SDS011;9718;52.200;21.052;2022-12-10T14:36:39;38.20;;;17.47;;
19171;SDS011;9718;52.200;21.052;2022-12-10T14:39:16;38.97;;;18.17;;
19171;SDS011;9718;52.200;21.052;2022-12-10T14:41:51;41.03;;;17.80;;
19171;SDS011;9718;52.200;21.052;2022-12-10T14:44:21;41.90;;;17.23;;
19171;SDS011;9718;52.200;21.052;2022-12-10T14:46:49;48.37;;;20.83;;
19171;SDS011;9718;52.200;21.052;2022-12-10T14:49:21;40.33;;;17.50;;
19171;SDS011;9718;52.200;21.052;2022-12-10T14:51:51;44.90;;;18.67;;
19171;SDS011;9718;52.200;21.052;2022-12-10T14:54:25;41.50;;;18.53;;
19171;SDS011;9718;52.200;21.052;2022-12-10T14:57:04;42.40;;;19.43;;
19171;SDS011;9718;52.200;21.052;2022-12-10T14:59:49;43.40;;;17.37;;
19171;SDS011;9718;52.200;21.052;2022-12-10T15:02:27;44.63;;;17.97;;
19171;SDS011;9718;52.200;21.052;2022-12-10T15:05:02;35.63;;;17.63;;
19171;SDS011;9718;52.200;21.052;2022-12-10T15:07:30;41.00;;;17.33;;
19171;SDS011;9718;52.200;21.052;2022-12-10T15:10:02;38.47;;;18.07;;
19171;SDS011;9718;52.200;21.052;2022-12-10T15:12:49;42.47;;;19.10;;
19171;SDS011;9718;52.200;21.052;2022-12-10T15:15:31;39.57;;;19.30;;
19171;SDS011;9718;52.200;21.052;2022-12-10T15:28:41;45.13;;;21.33;;
19171;SDS011;9718;52.200;21.052;2022-12-10T15:33:58;41.30;;;16.93;;
19171;SDS011;9718;52.200;21.052;2022-12-10T15:36:37;45.33;;;19.63;;
19171;SDS011;9718;52.200;21.052;2022-12-10T15:39:28;48.73;;;20.93;;
19171;SDS011;9718;52.200;21.052;2022-12-10T15:41:58;35.67;;;16.90;;
19171;SDS011;9718;52.200;21.052;2022-12-10T15:47:04;42.53;;;19.23;;
19171;SDS011;9718;52.200;21.052;2022-12-10T15:49:41;46.03;;;20.00;;
19171;SDS011;9718;52.200;21.052;2022-12-10T15:52:12;42.83;;;20.30;;
19171;SDS011;9718;52.200;21.052;2022-12-10T15:54:41;45.27;;;19.50;;
19171;SDS011;9718;52.200;21.052;2022-12-10T15:57:14;37.27;;;17.53;;
19171;SDS011;9718;52.200;21.052;2022-12-10T15:59:42;41.30;;;19.20;;
19171;SDS011;9718;52.200;21.052;2022-12-10T16:07:52;42.53;;;20.37;;
19171;SDS011;9718;52.200;21.052;2022-12-10T16:10:21;35.80;;;16.47;;
19171;SDS011;9718;52.200;21.052;2022-12-10T16:15:52;44.87;;;22.50;;
19171;SDS011;9718;52.200;21.052;2022-12-10T16:18:25;36.27;;;17.60;;
19171;SDS011;9718;52.200;21.052;2022-12-10T16:20:59;38.80;;;17.87;;
19171;SDS011;9718;52.200;21.052;2022-12-10T16:23:27;40.00;;;18.60;;
19171;SDS011;9718;52.200;21.052;2022-12-10T16:25:54;42.03;;;18.60;;
19171;SDS011;9718;52.200;21.052;2022-12-10T16:28:21;41.77;;;18.17;;
19171;SDS011;9718;52.200;21.052;2022-12-10T16:30:50;40.77;;;20.43;;
19171;SDS011;9718;52.200;21.052;2022-12-10T16:33:19;39.10;;;19.70;;
19171;SDS011;9718;52.200;21.052;2022-12-10T16:35:47;33.70;;;16.93;;
19171;SDS011;9718;52.200;21.052;2022-12-10T16:38:15;45.47;;;21.67;;
19171;SDS011;9718;52.200;21.052;2022-12-10T16:40:43;44.40;;;22.50;;
19171;SDS011;9718;52.200;21.052;2022-12-10T16:43:12;38.30;;;18.47;;
19171;SDS011;9718;52.200;21.052;2022-12-10T16:45:42;36.27;;;17.17;;
19171;SDS011;9718;52.200;21.052;2022-12-10T16:48:09;42.47;;;22.00;;
19171;SDS011;9718;52.200;21.052;2022-12-10T16:50:39;43.00;;;21.37;;
19171;SDS011;9718;52.200;21.052;2022-12-10T16:53:28;45.13;;;20.03;;
19171;SDS011;9718;52.200;21.052;2022-12-10T16:55:55;38.73;;;19.63;;
19171;SDS011;9718;52.200;21.052;2022-12-10T16:58:23;40.43;;;20.00;;
19171;SDS011;9718;52.200;21.052;2022-12-10T17:00:53;38.93;;;19.57;;
19171;SDS011;9718;52.200;21.052;2022-12-10T17:03:22;40.77;;;20.67;;
19171;SDS011;9718;52.200;21.052;2022-12-10T17:05:53;41.80;;;19.70;;
19171;SDS011;9718;52.200;21.052;2022-12-10T17:08:27;43.47;;;21.47;;
19171;SDS011;9718;52.200;21.052;2022-12-10T17:10:55;36.93;;;18.53;;
19171;SDS011;9718;52.200;21.052;2022-12-10T17:13:42;42.30;;;21.03;;
19171;SDS011;9718;52.200;21.052;2022-12-10T17:16:14;36.00;;;17.33;;
19171;SDS011;9718;52.200;21.052;2022-12-10T17:18:45;44.57;;;21.80;;
19171;SDS011;9718;52.200;21.052;2022-12-10T17:21:12;40.93;;;19.23;;
19171;SDS011;9718;52.200;21.052;2022-12-10T17:23:39;41.77;;;20.30;;